Time;durP1;ratioP1;P1;durP2;ratioP2;P2;SDS_P1;SDS_P2;PMS_P1;PMS_P2;Temp;Humidity;BMP_temperature;BMP_pressure;BME280_temperature;BME280_humidity;BME280_pressure;Samples;Min_cycle;Max_cycle;Signal;HPM_P1;HPM_P2
2022/06/03 00:02:14;;;;;;;0.10;0.10;;;;;;;;;;4992706;28;20061;-89
2022/06/03 00:04:52;;;;;;;0.10;0.10;;;;;;;;;;4976285;28;20043;-88
2022/06/03 00:07:24;;;;;;;0.10;0.10;;;;;;;;;;4976280;28;20133;-88
2022/06/03 00:10:10;;;;;;;0.10;0.10;;;;;;;;;;4992155;28;20053;-88
2022/06/03 00:12:57;;;;;;;0.10;0.10;;;;;;;;;;4976288;28;20054;-88
2022/06/03 00:15:28;;;;;;;0.10;0.10;;;;;;;;;;4979574;28;20042;-88
2022/06/03 00:17:57;;;;;;;0.10;0.10;;;;;;;;;;4976160;28;20477;-86
2022/06/03 00:20:31;;;;;;;0.10;0.10;;;;;;;;;;4991997;28;20049;-89
2022/06/03 00:22:57;;;;;;;0.10;0.10;;;;;;;;;;4992009;28;20054;-89
2022/06/03 00:25:32;;;;;;;0.10;0.10;;;;;;;;;;4991864;28;20512;-89
2022/06/03 00:28:14;;;;;;;0.10;0.10;;;;;;;;;;4991916;28;20042;-89
2022/06/03 00:30:49;;;;;;;0.10;0.10;;;;;;;;;;4975709;28;20034;-90
2022/06/03 00:33:37;;;;;;;0.10;0.10;;;;;;;;;;4975839;28;20054;-88
2022/06/03 00:36:14;;;;;;;0.10;0.10;;;;;;;;;;4975700;28;20042;-87
2022/06/03 00:38:58;;;;;;;0.10;0.10;;;;;;;;;;4959525;28;20049;-87
2022/06/03 00:42:02;;;;;;;0.10;0.10;;;;;;;;;;4959479;28;20038;-87
2022/06/03 00:44:46;;;;;;;0.10;0.10;;;;;;;;;;4932921;29;20051;-86
2022/06/03 00:47:16;;;;;;;0.10;0.10;;;;;;;;;;4932985;29;20075;-86
2022/06/03 00:50:05;;;;;;;0.10;0.10;;;;;;;;;;4968686;28;20533;-86
2022/06/03 00:52:46;;;;;;;0.10;0.10;;;;;;;;;;4959348;28;20042;-86
2022/06/03 00:55:18;;;;;;;0.10;0.10;;;;;;;;;;4991615;28;20042;-85
2022/06/03 00:57:45;;;;;;;0.10;0.10;;;;;;;;;;4991818;28;20041;-87
2022/06/03 01:00:11;;;;;;;0.10;0.10;;;;;;;;;;4991309;28;20062;-86
2022/06/03 01:02:51;;;;;;;0.10;0.10;;;;;;;;;;4975414;28;20497;-86
2022/06/03 01:05:37;;;;;;;0.10;0.10;;;;;;;;;;4975540;28;20470;-87
2022/06/03 01:08:15;;;;;;;0.10;0.10;;;;;;;;;;4991490;28;20053;-87
2022/06/03 01:10:44;;;;;;;0.10;0.10;;;;;;;;;;4975541;28;20440;-86
2022/06/03 01:13:13;;;;;;;0.10;0.10;;;;;;;;;;4991361;28;20046;-86
2022/06/03 01:15:48;;;;;;;0.20;0.20;;;;;;;;;;4991430;28;20057;-87
2022/06/03 01:18:17;;;;;;;0.10;0.10;;;;;;;;;;4975661;28;20137;-88
2022/06/03 01:21:01;;;;;;;0.10;0.10;;;;;;;;;;4991388;28;20457;-87
2022/06/03 01:23:46;;;;;;;0.10;0.10;;;;;;;;;;4975062;28;20096;-87
2022/06/03 01:26:13;;;;;;;0.10;0.10;;;;;;;;;;4975314;28;20505;-87
2022/06/03 01:28:54;;;;;;;0.10;0.10;;;;;;;;;;4975366;28;20118;-87
2022/06/03 01:31:23;;;;;;;0.10;0.10;;;;;;;;;;4975258;28;20048;-87
2022/06/03 01:33:56;;;;;;;0.10;0.10;;;;;;;;;;4991127;28;20046;-87
2022/06/03 01:36:28;;;;;;;0.17;0.17;;;;;;;;;;4991122;28;20050;-88
2022/06/03 01:39:02;;;;;;;0.10;0.10;;;;;;;;;;4991200;28;20112;-87
2022/06/03 01:41:32;;;;;;;0.10;0.10;;;;;;;;;;4975132;28;20046;-88
2022/06/03 01:44:07;;;;;;;0.10;0.10;;;;;;;;;;4991062;28;20042;-88
2022/06/03 01:46:34;;;;;;;0.10;0.10;;;;;;;;;;4991374;28;20363;-88
2022/06/03 01:49:00;;;;;;;0.10;0.10;;;;;;;;;;4974891;28;20073;-88
2022/06/03 01:51:46;;;;;;;0.10;0.10;;;;;;;;;;4991064;28;20043;-88
2022/06/03 01:54:18;;;;;;;0.10;0.10;;;;;;;;;;4990936;28;20042;-88
2022/06/03 01:56:58;;;;;;;0.10;0.10;;;;;;;;;;4975103;28;20038;-88
2022/06/03 01:59:29;;;;;;;0.10;0.10;;;;;;;;;;4974717;28;20062;-87
2022/06/03 02:02:14;;;;;;;0.10;0.10;;;;;;;;;;4978676;28;20046;-87
2022/06/03 02:04:47;;;;;;;0.10;0.10;;;;;;;;;;4994675;28;20121;-87
2022/06/03 02:07:21;;;;;;;0.10;0.10;;;;;;;;;;4978445;28;20038;-86
2022/06/03 02:09:48;;;;;;;0.10;0.10;;;;;;;;;;4962091;28;20057;-86
2022/06/03 02:12:19;;;;;;;0.10;0.10;;;;;;;;;;4994245;28;20035;-86
2022/06/03 02:15:13;;;;;;;0.28;0.28;;;;;;;;;;4994372;28;20038;-86
2022/06/03 02:17:51;;;;;;;0.10;0.10;;;;;;;;;;4978404;28;20050;-86
2022/06/03 02:20:20;;;;;;;0.10;0.10;;;;;;;;;;4978054;28;20057;-85
2022/06/03 02:22:53;;;;;;;0.10;0.10;;;;;;;;;;4994086;28;20042;-86
2022/06/03 02:25:34;;;;;;;0.10;0.10;;;;;;;;;;4994132;28;20049;-86
2022/06/03 02:28:06;;;;;;;0.10;0.10;;;;;;;;;;4994355;28;20053;-86
2022/06/03 02:30:39;;;;;;;0.15;0.15;;;;;;;;;;4994050;28;20409;-87
2022/06/03 02:33:04;;;;;;;;;;;;;;;;;;4994366;28;20521;-87
2022/06/03 02:35:36;;;;;;;0.10;0.10;;;;;;;;;;4993972;28;19925;-87
2022/06/03 02:38:08;;;;;;;0.10;0.10;;;;;;;;;;4977886;28;20508;-87
2022/06/03 02:40:38;;;;;;;0.10;0.10;;;;;;;;;;4993776;28;20403;-87
2022/06/03 02:43:08;;;;;;;0.10;0.10;;;;;;;;;;4977683;28;20039;-86
2022/06/03 02:45:53;;;;;;;0.20;0.20;;;;;;;;;;4993740;28;20050;-88
2022/06/03 02:48:25;;;;;;;0.10;0.10;;;;;;;;;;4961536;28;20049;-86
2022/06/03 02:51:04;;;;;;;0.10;0.10;;;;;;;;;;4993747;28;20149;-88
2022/06/03 02:53:36;;;;;;;0.10;0.10;;;;;;;;;;4977115;28;20137;-86
2022/06/03 02:56:14;;;;;;;0.10;0.10;;;;;;;;;;4993514;28;20050;-87
2022/06/03 02:58:55;;;;;;;0.10;0.10;;;;;;;;;;4993311;28;20066;-87
2022/06/03 03:01:37;;;;;;;0.10;0.10;;;;;;;;;;4993379;28;20483;-87
2022/06/03 03:04:21;;;;;;;0.10;0.10;;;;;;;;;;4977297;28;20044;-86
2022/06/03 03:07:09;;;;;;;0.10;0.10;;;;;;;;;;4993349;28;20044;-87
2022/06/03 03:09:38;;;;;;;0.10;0.10;;;;;;;;;;4993451;28;20043;-89
2022/06/03 03:12:13;;;;;;;0.10;0.10;;;;;;;;;;4996196;28;20134;-88
2022/06/03 03:14:58;;;;;;;0.10;0.10;;;;;;;;;;4996519;28;20150;-87
2022/06/03 03:17:27;;;;;;;0.10;0.10;;;;;;;;;;5003244;28;20041;-86
2022/06/03 03:19:56;;;;;;;0.10;0.10;;;;;;;;;;5018546;28;20155;-87
2022/06/03 03:22:54;;;;;;;0.10;0.10;;;;;;;;;;5018375;28;20034;-87
2022/06/03 03:25:20;;;;;;;0.10;0.10;;;;;;;;;;4951060;28;20089;-87
2022/06/03 03:27:52;;;;;;;0.10;0.10;;;;;;;;;;4993370;28;20042;-87
2022/06/03 03:30:23;;;;;;;0.20;0.20;;;;;;;;;;4977048;28;20499;-87
2022/06/03 03:33:03;;;;;;;0.10;0.10;;;;;;;;;;4976758;28;20042;-87
2022/06/03 03:35:44;;;;;;;0.10;0.10;;;;;;;;;;4976793;28;20043;-87
2022/06/03 03:38:13;;;;;;;0.10;0.10;;;;;;;;;;4992832;28;20046;-87
2022/06/03 03:40:56;;;;;;;0.10;0.10;;;;;;;;;;4992680;28;20387;-87
2022/06/03 03:43:41;;;;;;;0.10;0.10;;;;;;;;;;4960348;28;20088;-86
2022/06/03 03:46:22;;;;;;;0.10;0.10;;;;;;;;;;4992740;28;20644;-87
2022/06/03 03:48:53;;;;;;;0.10;0.10;;;;;;;;;;4976519;28;20034;-87
2022/06/03 03:51:19;;;;;;;0.10;0.10;;;;;;;;;;4960452;28;20053;-86
2022/06/03 03:53:51;;;;;;;0.10;0.10;;;;;;;;;;4976341;28;20046;-86
2022/06/03 03:56:29;;;;;;;0.10;0.10;;;;;;;;;;4992917;28;20089;-87
2022/06/03 03:59:03;;;;;;;0.10;0.10;;;;;;;;;;4976281;28;20058;-88
2022/06/03 04:01:38;;;;;;;0.30;0.30;;;;;;;;;;4976308;28;20050;-88
2022/06/03 04:04:13;;;;;;;0.10;0.10;;;;;;;;;;4976577;28;20124;-88
2022/06/03 04:06:48;;;;;;;0.10;0.10;;;;;;;;;;4992388;28;20126;-88
2022/06/03 04:09:33;;;;;;;0.10;0.10;;;;;;;;;;4992264;28;20057;-87
2022/06/03 04:12:08;;;;;;;0.38;0.30;;;;;;;;;;4992142;28;20133;-88
2022/06/03 04:14:40;;;;;;;0.10;0.10;;;;;;;;;;4976143;28;20038;-88
2022/06/03 04:17:06;;;;;;;0.17;0.17;;;;;;;;;;4992211;28;20054;-87
2022/06/03 04:19:38;;;;;;;0.10;0.10;;;;;;;;;;4975889;28;20121;-87
2022/06/03 04:22:13;;;;;;;0.10;0.10;;;;;;;;;;4991956;28;20113;-87
2022/06/03 04:24:58;;;;;;;0.10;0.10;;;;;;;;;;4975134;28;20050;-87
2022/06/03 04:27:34;;;;;;;0.10;0.10;;;;;;;;;;4975688;28;20474;-86
2022/06/03 04:30:19;;;;;;;0.10;0.10;;;;;;;;;;4991862;28;20042;-87
2022/06/03 04:33:04;;;;;;;0.10;0.10;;;;;;;;;;4975595;28;20125;-87
2022/06/03 04:35:33;;;;;;;0.10;0.10;;;;;;;;;;4991748;28;20466;-86
2022/06/03 04:38:18;;;;;;;0.13;0.13;;;;;;;;;;4992063;28;20447;-87
2022/06/03 04:40:50;;;;;;;0.10;0.10;;;;;;;;;;4991986;28;20461;-87
2022/06/03 04:43:35;;;;;;;0.10;0.10;;;;;;;;;;4975683;28;20461;-87
2022/06/03 04:46:07;;;;;;;0.10;0.10;;;;;;;;;;4991602;28;20054;-87
2022/06/03 04:48:51;;;;;;;0.10;0.10;;;;;;;;;;4975557;28;20045;-87
2022/06/03 04:51:36;;;;;;;0.13;0.13;;;;;;;;;;4991694;28;20074;-88
2022/06/03 04:54:12;;;;;;;0.10;0.10;;;;;;;;;;4991801;28;20050;-87
2022/06/03 04:56:56;;;;;;;0.10;0.10;;;;;;;;;;4975401;28;20049;-88
2022/06/03 04:59:41;;;;;;;0.20;0.20;;;;;;;;;;4991581;28;20065;-87
2022/06/03 05:02:26;;;;;;;0.10;0.10;;;;;;;;;;4991533;28;20054;-86
2022/06/03 05:05:06;;;;;;;0.10;0.10;;;;;;;;;;4991617;28;20050;-87
2022/06/03 05:07:51;;;;;;;0.17;0.17;;;;;;;;;;4959709;28;20046;-87
2022/06/03 05:10:35;;;;;;;0.15;0.15;;;;;;;;;;4991665;28;20140;-86
2022/06/03 05:13:02;;;;;;;0.10;0.10;;;;;;;;;;4991471;28;20034;-87
2022/06/03 05:15:42;;;;;;;0.20;0.20;;;;;;;;;;4992848;28;20065;-87
2022/06/03 05:18:17;;;;;;;0.10;0.10;;;;;;;;;;4975307;28;20038;-87
2022/06/03 05:20:45;;;;;;;0.45;0.45;;;;;;;;;;4991287;28;20558;-87
2022/06/03 05:23:12;;;;;;;0.10;0.10;;;;;;;;;;4959304;28;20122;-87
2022/06/03 05:25:56;;;;;;;0.10;0.10;;;;;;;;;;4991186;28;20071;-88
2022/06/03 05:28:40;;;;;;;0.10;0.10;;;;;;;;;;4991633;28;20486;-87
2022/06/03 05:31:06;;;;;;;0.10;0.10;;;;;;;;;;4975539;28;20375;-87
2022/06/03 05:33:51;;;;;;;0.10;0.10;;;;;;;;;;4991221;28;20126;-87
2022/06/03 05:36:34;;;;;;;0.10;0.10;;;;;;;;;;4994048;28;20049;-87
2022/06/03 05:39:19;;;;;;;0.10;0.10;;;;;;;;;;4978996;28;20049;-87
2022/06/03 05:45:12;;;;;;;0.10;0.10;;;;;;;;;;4995010;28;20042;-87
2022/06/03 05:47:43;;;;;;;0.10;0.10;;;;;;;;;;4968883;28;20136;-88
2022/06/03 05:50:13;;;;;;;0.10;0.10;;;;;;;;;;4978622;28;20088;-88
2022/06/03 05:52:48;;;;;;;0.10;0.10;;;;;;;;;;4978938;28;20446;-88
2022/06/03 05:55:15;;;;;;;0.10;0.10;;;;;;;;;;4994909;28;20516;-88
2022/06/03 05:57:47;;;;;;;0.13;0.13;;;;;;;;;;4994721;28;20122;-87
2022/06/03 06:00:32;;;;;;;0.10;0.10;;;;;;;;;;4994492;28;20054;-87
2022/06/03 06:03:10;;;;;;;0.10;0.10;;;;;;;;;;4994379;28;20564;-88
2022/06/03 06:05:42;;;;;;;0.10;0.10;;;;;;;;;;4994826;28;20030;-87
2022/06/03 06:08:08;;;;;;;0.10;0.10;;;;;;;;;;4994522;28;20038;-88
2022/06/03 06:10:50;;;;;;;0.10;0.10;;;;;;;;;;4994480;28;20042;-86
2022/06/03 06:13:31;;;;;;;0.10;0.10;;;;;;;;;;4994324;28;20046;-89
2022/06/03 06:16:03;;;;;;;0.10;0.10;;;;;;;;;;4978350;28;20042;-84
2022/06/03 06:18:42;;;;;;;0.10;0.10;;;;;;;;;;4994703;28;20051;-85
2022/06/03 06:21:21;;;;;;;0.10;0.10;;;;;;;;;;4994137;28;20053;-85
2022/06/03 06:23:51;;;;;;;0.10;0.10;;;;;;;;;;4978087;28;20557;-85
2022/06/03 06:26:30;;;;;;;0.10;0.10;;;;;;;;;;4978097;28;20042;-85
2022/06/03 06:28:59;;;;;;;0.30;0.22;;;;;;;;;;4978238;28;20038;-86
2022/06/03 06:31:44;;;;;;;0.10;0.10;;;;;;;;;;4978031;28;20133;-88
2022/06/03 06:34:29;;;;;;;0.20;0.20;;;;;;;;;;4993866;28;20046;-88
2022/06/03 06:37:24;;;;;;;0.10;0.10;;;;;;;;;;4978485;28;20504;-88
2022/06/03 06:39:53;;;;;;;0.17;0.17;;;;;;;;;;4926534;28;20585;-84
2022/06/03 06:42:31;;;;;;;0.10;0.10;;;;;;;;;;4977725;28;20039;-86
2022/06/03 06:45:09;;;;;;;0.10;0.10;;;;;;;;;;4993946;28;20042;-85
2022/06/03 06:47:36;;;;;;;0.10;0.10;;;;;;;;;;4992812;28;20086;-85
2022/06/03 06:50:20;;;;;;;0.10;0.10;;;;;;;;;;4994005;28;20047;-85
2022/06/03 06:53:03;;;;;;;0.20;0.20;;;;;;;;;;4993622;28;20493;-84
2022/06/03 06:55:48;;;;;;;0.30;0.30;;;;;;;;;;4993966;28;20187;-86
2022/06/03 06:58:32;;;;;;;0.20;0.20;;;;;;;;;;4993783;28;20482;-88
2022/06/03 07:01:00;;;;;;;0.28;0.28;;;;;;;;;;4957913;28;20058;-89
2022/06/03 07:03:39;;;;;;;0.20;0.20;;;;;;;;;;4926370;28;20490;-89
2022/06/03 07:06:06;;;;;;;0.20;0.20;;;;;;;;;;4941850;28;20379;-87
2022/06/03 07:08:44;;;;;;;0.10;0.10;;;;;;;;;;4926651;28;20038;-86
2022/06/03 07:11:10;;;;;;;0.10;0.10;;;;;;;;;;4926247;28;20057;-87
2022/06/03 07:13:39;;;;;;;0.10;0.10;;;;;;;;;;4957885;28;20129;-90
2022/06/03 07:16:09;;;;;;;0.10;0.10;;;;;;;;;;4942068;28;20085;-86
2022/06/03 07:21:52;;;;;;;0.30;0.30;;;;;;;;;;4942446;28;20134;-91
2022/06/03 07:24:20;;;;;;;0.32;0.32;;;;;;;;;;4941501;28;20091;-87
2022/06/03 07:26:48;;;;;;;0.30;0.30;;;;;;;;;;4941620;28;20367;-88
2022/06/03 07:29:16;;;;;;;0.10;0.10;;;;;;;;;;4958262;28;20528;-90
2022/06/03 07:31:49;;;;;;;0.10;0.10;;;;;;;;;;4942018;28;20101;-89
2022/06/03 07:34:33;;;;;;;0.10;0.10;;;;;;;;;;4925663;28;20089;-86
2022/06/03 07:37:02;;;;;;;0.10;0.10;;;;;;;;;;4974729;28;20125;-86
2022/06/03 07:39:31;;;;;;;0.10;0.10;;;;;;;;;;4941515;28;20038;-86
2022/06/03 07:42:05;;;;;;;0.20;0.20;;;;;;;;;;4957311;28;20050;-86
2022/06/03 07:44:49;;;;;;;0.10;0.10;;;;;;;;;;4957237;28;20043;-86
2022/06/03 07:47:18;;;;;;;0.20;0.20;;;;;;;;;;4957172;28;20039;-86
2022/06/03 07:49:45;;;;;;;0.10;0.10;;;;;;;;;;4941564;28;20043;-86
2022/06/03 07:52:13;;;;;;;0.10;0.10;;;;;;;;;;4957069;28;20049;-86
2022/06/03 07:54:50;;;;;;;0.10;0.10;;;;;;;;;;4925538;28;20054;-85
2022/06/03 07:57:21;;;;;;;0.20;0.20;;;;;;;;;;4956993;28;20553;-87
2022/06/03 07:59:47;;;;;;;0.10;0.10;;;;;;;;;;4962046;28;20120;-86
2022/06/03 08:02:21;;;;;;;0.13;0.13;;;;;;;;;;4976098;28;20058;-86
2022/06/03 08:04:48;;;;;;;0.22;0.22;;;;;;;;;;4976149;28;20038;-87
2022/06/03 08:13:04;;;;;;;0.20;0.20;;;;;;;;;;4981036;28;20125;-88
2022/06/03 08:15:34;;;;;;;0.10;0.10;;;;;;;;;;4993113;28;20545;-88
2022/06/03 08:18:00;;;;;;;0.65;0.20;;;;;;;;;;4976273;28;20041;-87
2022/06/03 08:20:26;;;;;;;0.10;0.10;;;;;;;;;;4975921;28;20120;-87
2022/06/03 08:22:52;;;;;;;0.20;0.20;;;;;;;;;;4975840;28;20078;-86
2022/06/03 08:25:23;;;;;;;0.10;0.10;;;;;;;;;;4975981;28;20034;-86
2022/06/03 08:27:49;;;;;;;0.10;0.10;;;;;;;;;;4975857;28;20042;-87
2022/06/03 08:30:18;;;;;;;0.13;0.13;;;;;;;;;;4975847;28;20081;-86
2022/06/03 08:32:45;;;;;;;0.10;0.10;;;;;;;;;;4975698;28;20088;-86
2022/06/03 08:35:14;;;;;;;0.20;0.20;;;;;;;;;;4975598;28;20038;-87
2022/06/03 08:37:44;;;;;;;0.10;0.10;;;;;;;;;;4975633;28;20042;-86
2022/06/03 08:40:31;;;;;;;0.10;0.10;;;;;;;;;;4975582;28;20038;-86
2022/06/03 08:42:57;;;;;;;0.10;0.10;;;;;;;;;;4959709;28;20073;-88
2022/06/03 08:45:39;;;;;;;0.10;0.10;;;;;;;;;;4991905;28;20080;-87
2022/06/03 08:48:13;;;;;;;0.10;0.10;;;;;;;;;;4959550;28;20378;-87
2022/06/03 08:50:42;;;;;;;0.20;0.20;;;;;;;;;;4975622;28;20129;-87
2022/06/03 08:53:09;;;;;;;0.20;0.20;;;;;;;;;;4975393;28;20101;-86
2022/06/03 08:55:45;;;;;;;0.10;0.10;;;;;;;;;;4975572;28;20129;-85
2022/06/03 08:58:17;;;;;;;0.20;0.20;;;;;;;;;;4975403;28;20045;-85
2022/06/03 09:00:58;;;;;;;0.20;0.20;;;;;;;;;;4939991;28;20539;-85
2022/06/03 09:03:24;;;;;;;0.10;0.10;;;;;;;;;;4940138;28;20039;-86
2022/06/03 09:06:22;;;;;;;0.30;0.30;;;;;;;;;;4940162;28;20046;-86
2022/06/03 09:09:14;;;;;;;0.10;0.10;;;;;;;;;;4904507;28;20054;-86
2022/06/03 09:12:01;;;;;;;0.20;0.20;;;;;;;;;;4923735;28;20049;-87
2022/06/03 09:14:27;;;;;;;0.10;0.10;;;;;;;;;;4912394;28;20102;-87
2022/06/03 09:16:53;;;;;;;0.20;0.20;;;;;;;;;;4928327;28;20047;-85
2022/06/03 09:19:27;;;;;;;0.20;0.20;;;;;;;;;;4943698;28;20146;-84
2022/06/03 09:21:53;;;;;;;0.10;0.10;;;;;;;;;;4943869;28;20517;-84
2022/06/03 09:24:24;;;;;;;0.20;0.20;;;;;;;;;;4944139;28;20074;-85
2022/06/03 09:26:51;;;;;;;0.10;0.10;;;;;;;;;;4943831;28;20090;-85
2022/06/03 09:29:18;;;;;;;0.10;0.10;;;;;;;;;;4927714;28;20034;-84
2022/06/03 09:31:46;;;;;;;0.17;0.17;;;;;;;;;;4943574;28;20043;-85
2022/06/03 09:34:12;;;;;;;0.10;0.10;;;;;;;;;;4943604;28;20573;-86
2022/06/03 09:36:38;;;;;;;0.10;0.10;;;;;;;;;;4943901;28;20376;-86
2022/06/03 09:39:05;;;;;;;0.10;0.10;;;;;;;;;;4927857;28;20134;-85
2022/06/03 09:41:32;;;;;;;0.10;0.10;;;;;;;;;;4927805;28;20046;-87
2022/06/03 09:43:58;;;;;;;0.10;0.10;;;;;;;;;;4959583;28;20398;-87
2022/06/03 09:46:25;;;;;;;0.10;0.10;;;;;;;;;;4943433;28;20038;-86
2022/06/03 09:48:51;;;;;;;0.10;0.10;;;;;;;;;;4927497;28;20498;-86
2022/06/03 09:51:20;;;;;;;0.10;0.10;;;;;;;;;;4943363;28;20047;-86
2022/06/03 09:54:04;;;;;;;0.20;0.20;;;;;;;;;;4945030;28;20403;-87
2022/06/03 09:56:30;;;;;;;0.20;0.20;;;;;;;;;;4959194;28;20053;-90
2022/06/03 09:58:58;;;;;;;0.10;0.10;;;;;;;;;;4935352;28;20588;-86
2022/06/03 10:01:24;;;;;;;0.20;0.20;;;;;;;;;;4962437;28;20042;-86
2022/06/03 10:03:51;;;;;;;0.10;0.10;;;;;;;;;;4979552;28;20045;-85
2022/06/03 10:14:31;;;;;;;0.10;0.10;;;;;;;;;;4980866;28;20057;-88
2022/06/03 10:16:57;;;;;;;0.10;0.10;;;;;;;;;;4962402;28;20047;-89
2022/06/03 10:19:23;;;;;;;0.10;0.10;;;;;;;;;;4961976;28;20049;-89
2022/06/03 10:21:50;;;;;;;0.20;0.20;;;;;;;;;;4962007;28;20039;-87
2022/06/03 10:24:16;;;;;;;0.10;0.10;;;;;;;;;;4977996;28;20034;-87
2022/06/03 10:26:50;;;;;;;0.20;0.20;;;;;;;;;;4961977;28;20043;-89
2022/06/03 10:29:20;;;;;;;0.10;0.10;;;;;;;;;;4962983;28;20049;-90
2022/06/03 10:31:51;;;;;;;0.15;0.15;;;;;;;;;;4961823;28;20049;-88
2022/06/03 10:34:19;;;;;;;0.20;0.20;;;;;;;;;;4977950;28;20129;-87
2022/06/03 10:36:45;;;;;;;0.10;0.10;;;;;;;;;;4977941;28;20042;-88
2022/06/03 10:39:15;;;;;;;0.13;0.13;;;;;;;;;;4962001;28;20362;-88
2022/06/03 10:41:44;;;;;;;0.20;0.20;;;;;;;;;;4977676;28;20038;-87
2022/06/03 10:44:14;;;;;;;0.30;0.30;;;;;;;;;;4977549;28;20116;-89
2022/06/03 10:47:02;;;;;;;0.10;0.10;;;;;;;;;;4961574;28;20038;-89
2022/06/03 10:49:29;;;;;;;0.10;0.10;;;;;;;;;;4977626;28;20485;-90
2022/06/03 11:02:55;;;;;;;0.10;0.10;;;;;;;;;;4979794;28;20042;-88
2022/06/03 11:05:22;;;;;;;0.10;0.10;;;;;;;;;;4977408;28;20045;-88
2022/06/03 11:08:02;;;;;;;0.10;0.10;;;;;;;;;;4977412;28;20133;-87
2022/06/03 11:10:39;;;;;;;0.10;0.10;;;;;;;;;;4961283;28;20419;-88
2022/06/03 11:13:06;;;;;;;0.20;0.20;;;;;;;;;;4961430;28;20081;-88
2022/06/03 11:15:36;;;;;;;0.10;0.10;;;;;;;;;;4961196;28;20049;-89
2022/06/03 11:18:19;;;;;;;0.10;0.10;;;;;;;;;;4977379;28;20038;-88
2022/06/03 11:20:50;;;;;;;0.20;0.20;;;;;;;;;;4960980;28;20560;-87
2022/06/03 11:23:16;;;;;;;0.10;0.10;;;;;;;;;;4977232;28;20101;-88
2022/06/03 11:25:44;;;;;;;0.20;0.20;;;;;;;;;;4993127;28;20046;-88
2022/06/03 11:28:17;;;;;;;0.10;0.10;;;;;;;;;;4959765;28;20089;-88
2022/06/03 11:31:19;;;;;;;0.10;0.10;;;;;;;;;;4976738;28;20077;-88
2022/06/03 11:33:57;;;;;;;0.20;0.20;;;;;;;;;;4917947;29;20456;-87
2022/06/03 11:36:27;;;;;;;0.57;0.57;;;;;;;;;;4967954;28;20062;-88
2022/06/03 11:38:53;;;;;;;0.10;0.10;;;;;;;;;;4976877;28;20125;-89
2022/06/03 11:41:20;;;;;;;0.10;0.10;;;;;;;;;;4976667;28;20129;-88
2022/06/03 11:43:51;;;;;;;0.15;0.15;;;;;;;;;;4976900;28;20137;-89
2022/06/03 11:46:20;;;;;;;0.10;0.10;;;;;;;;;;4960915;28;20077;-88
2022/06/03 11:48:46;;;;;;;0.10;0.10;;;;;;;;;;4960389;28;20042;-87
2022/06/03 11:51:12;;;;;;;0.20;0.20;;;;;;;;;;4960653;28;20391;-87
2022/06/03 11:53:48;;;;;;;0.10;0.10;;;;;;;;;;4976537;28;20053;-87
2022/06/03 11:56:15;;;;;;;0.17;0.17;;;;;;;;;;4961014;28;20410;-88
2022/06/03 11:58:48;;;;;;;0.10;0.10;;;;;;;;;;4976334;28;20066;-88
2022/06/03 12:01:34;;;;;;;0.10;0.10;;;;;;;;;;4992224;28;20046;-88
2022/06/03 12:04:00;;;;;;;0.20;0.20;;;;;;;;;;4992107;28;20043;-88
2022/06/03 12:06:29;;;;;;;0.13;0.13;;;;;;;;;;4976338;28;20039;-88
2022/06/03 12:09:01;;;;;;;0.10;0.10;;;;;;;;;;4976386;28;20038;-88
2022/06/03 12:14:37;;;;;;;0.10;0.10;;;;;;;;;;4992686;28;20042;-88
2022/06/03 12:17:12;;;;;;;0.10;0.10;;;;;;;;;;4960020;28;20413;-88
2022/06/03 12:19:46;;;;;;;0.45;0.30;;;;;;;;;;4993052;28;20057;-90
2022/06/03 12:22:18;;;;;;;0.10;0.10;;;;;;;;;;4959710;28;20048;-88
2022/06/03 12:24:44;;;;;;;;;;;;;;;;;;4960435;28;20073;-89
2022/06/03 12:27:18;;;;;;;0.10;0.10;;;;;;;;;;4992231;28;19953;-90
2022/06/03 12:29:46;;;;;;;0.10;0.10;;;;;;;;;;4975993;28;20035;-90
2022/06/03 12:32:13;;;;;;;0.10;0.10;;;;;;;;;;4960296;28;20405;-89
2022/06/03 12:34:40;;;;;;;0.10;0.10;;;;;;;;;;4959567;28;20046;-89
2022/06/03 12:37:22;;;;;;;0.20;0.20;;;;;;;;;;4959599;28;20379;-89
2022/06/03 12:39:49;;;;;;;0.10;0.10;;;;;;;;;;4975649;28;20458;-89
2022/06/03 12:42:28;;;;;;;0.10;0.10;;;;;;;;;;4975551;28;20052;-89
2022/06/03 12:44:57;;;;;;;0.10;0.10;;;;;;;;;;4975220;28;20133;-88
2022/06/03 12:47:27;;;;;;;0.20;0.20;;;;;;;;;;4991663;28;20077;-88
2022/06/03 12:49:54;;;;;;;0.10;0.10;;;;;;;;;;4959978;28;20095;-87
2022/06/03 12:52:46;;;;;;;0.10;0.10;;;;;;;;;;4976236;28;20047;-93
2022/06/03 12:55:15;;;;;;;0.10;0.10;;;;;;;;;;4991406;28;20054;-94
2022/06/03 12:57:53;;;;;;;0.10;0.10;;;;;;;;;;4976440;28;20046;-90
2022/06/03 13:00:34;;;;;;;0.10;0.10;;;;;;;;;;4974231;28;20061;-90
2022/06/03 13:03:41;;;;;;;0.20;0.20;;;;;;;;;;4957720;28;20130;-92
2022/06/03 13:06:21;;;;;;;0.10;0.10;;;;;;;;;;4958297;28;20461;-95
2022/06/03 13:11:32;;;;;;;0.10;0.10;;;;;;;;;;4960473;28;20046;-93
2022/06/03 13:14:21;;;;;;;0.20;0.20;;;;;;;;;;4958698;28;20042;-95
2022/06/03 13:16:58;;;;;;;0.10;0.10;;;;;;;;;;4974197;28;20047;-94
2022/06/03 13:19:26;;;;;;;0.10;0.10;;;;;;;;;;4974125;28;20058;-93
2022/06/03 13:24:43;;;;;;;0.10;0.10;;;;;;;;;;5030532;23;20149;-94
2022/06/03 13:27:13;;;;;;;0.10;0.10;;;;;;;;;;4960060;28;20181;-94
2022/06/03 13:30:00;;;;;;;0.10;0.10;;;;;;;;;;4977091;28;20046;-95
2022/06/03 13:35:09;;;;;;;0.20;0.20;;;;;;;;;;5362143;23;20533;-94
2022/06/03 13:37:35;;;;;;;0.55;0.55;;;;;;;;;;4980716;28;20051;-90
2022/06/03 13:40:01;;;;;;;0.10;0.10;;;;;;;;;;4987094;28;20046;-91
2022/06/03 13:42:59;;;;;;;0.20;0.20;;;;;;;;;;4973186;28;20049;-92
2022/06/03 13:45:45;;;;;;;0.10;0.10;;;;;;;;;;4977395;28;20038;-92
2022/06/03 13:48:12;;;;;;;0.10;0.10;;;;;;;;;;4984033;28;20086;-92
2022/06/03 13:50:39;;;;;;;0.10;0.10;;;;;;;;;;4984272;28;20043;-91
2022/06/03 13:53:05;;;;;;;0.10;0.10;;;;;;;;;;4979389;28;20277;-92
2022/06/03 13:55:34;;;;;;;0.10;0.10;;;;;;;;;;4980795;28;20026;-93
2022/06/03 13:58:09;;;;;;;0.10;0.10;;;;;;;;;;5003507;28;20054;-93
2022/06/03 14:00:35;;;;;;;0.10;0.10;;;;;;;;;;5000881;28;20022;-92
2022/06/03 14:03:07;;;;;;;0.20;0.20;;;;;;;;;;5002488;28;20190;-93
2022/06/03 14:05:36;;;;;;;0.13;0.13;;;;;;;;;;4984017;28;20052;-93
2022/06/03 14:08:22;;;;;;;0.10;0.10;;;;;;;;;;4980822;28;20065;-94
2022/06/03 14:10:53;;;;;;;0.15;0.15;;;;;;;;;;4979089;28;20046;-93
2022/06/03 14:13:41;;;;;;;0.10;0.10;;;;;;;;;;4979522;28;20089;-93
2022/06/03 14:16:10;;;;;;;0.20;0.20;;;;;;;;;;4991487;28;20038;-92
2022/06/03 14:18:47;;;;;;;0.10;0.10;;;;;;;;;;4979527;28;20066;-92
2022/06/03 14:21:17;;;;;;;0.10;0.10;;;;;;;;;;4962300;28;20547;-91
2022/06/03 14:23:45;;;;;;;0.10;0.10;;;;;;;;;;4962674;28;20073;-94
2022/06/03 14:26:17;;;;;;;0.10;0.10;;;;;;;;;;4962981;28;20053;-93
2022/06/03 14:28:43;;;;;;;;;;;;;;;;;;4963570;28;20042;-93
2022/06/03 14:31:12;;;;;;;0.20;0.20;;;;;;;;;;4994231;28;19925;-93
2022/06/03 14:33:39;;;;;;;0.20;0.20;;;;;;;;;;4977724;28;20485;-92
2022/06/03 14:36:07;;;;;;;0.20;0.20;;;;;;;;;;4962116;28;20052;-92
2022/06/03 14:38:38;;;;;;;0.10;0.10;;;;;;;;;;4962021;28;20046;-92
2022/06/03 14:41:12;;;;;;;0.30;0.30;;;;;;;;;;4977777;28;20050;-88
2022/06/03 14:43:38;;;;;;;0.10;0.10;;;;;;;;;;4961690;28;20038;-89
2022/06/03 14:46:05;;;;;;;0.10;0.10;;;;;;;;;;4962374;28;20070;-90
2022/06/03 14:48:37;;;;;;;0.10;0.10;;;;;;;;;;4961611;28;20236;-90
2022/06/03 14:51:08;;;;;;;0.15;0.15;;;;;;;;;;4977658;28;20046;-90
2022/06/03 14:53:36;;;;;;;0.17;0.17;;;;;;;;;;4977291;28;20185;-91
2022/06/03 14:56:13;;;;;;;0.10;0.10;;;;;;;;;;4961675;28;20507;-90
2022/06/03 14:58:41;;;;;;;0.20;0.20;;;;;;;;;;4961464;28;20133;-90
2022/06/03 15:01:07;;;;;;;0.20;0.20;;;;;;;;;;4961308;28;20406;-90
2022/06/03 15:03:34;;;;;;;0.10;0.10;;;;;;;;;;4977204;28;20047;-90
2022/06/03 15:06:01;;;;;;;0.10;0.10;;;;;;;;;;4961521;28;20038;-90
2022/06/03 15:08:31;;;;;;;0.10;0.10;;;;;;;;;;4976577;28;20042;-90
2022/06/03 15:11:06;;;;;;;0.10;0.10;;;;;;;;;;4977270;28;20109;-90
2022/06/03 15:13:32;;;;;;;0.20;0.20;;;;;;;;;;4961283;28;20096;-90
2022/06/03 15:15:58;;;;;;;0.32;0.28;;;;;;;;;;4961271;28;20133;-91
2022/06/03 15:18:26;;;;;;;0.20;0.20;;;;;;;;;;4961434;28;20046;-90
2022/06/03 15:20:57;;;;;;;0.10;0.10;;;;;;;;;;4960983;28;20074;-90
2022/06/03 15:23:26;;;;;;;0.10;0.10;;;;;;;;;;4977306;28;20548;-90
2022/06/03 15:25:54;;;;;;;0.20;0.20;;;;;;;;;;4961671;28;20060;-90
2022/06/03 15:28:20;;;;;;;0.10;0.10;;;;;;;;;;4977487;28;20401;-90
2022/06/03 15:30:56;;;;;;;0.20;0.20;;;;;;;;;;4961403;28;20375;-90
2022/06/03 15:33:23;;;;;;;0.10;0.10;;;;;;;;;;4976539;28;20054;-90
2022/06/03 15:35:56;;;;;;;0.10;0.10;;;;;;;;;;4976915;28;20144;-91
2022/06/03 15:38:24;;;;;;;0.10;0.10;;;;;;;;;;4960753;28;20084;-91
2022/06/03 15:40:58;;;;;;;0.10;0.10;;;;;;;;;;4992939;28;20069;-91
2022/06/03 15:43:25;;;;;;;0.10;0.10;;;;;;;;;;4960824;28;20093;-91
2022/06/03 15:45:52;;;;;;;0.20;0.20;;;;;;;;;;4960710;28;20045;-91
2022/06/03 15:48:19;;;;;;;0.20;0.20;;;;;;;;;;4976904;28;20046;-90
2022/06/03 15:51:04;;;;;;;0.40;0.40;;;;;;;;;;4976698;28;20057;-90
2022/06/03 15:53:31;;;;;;;0.10;0.10;;;;;;;;;;4976522;28;20049;-91
2022/06/03 15:56:03;;;;;;;0.13;0.13;;;;;;;;;;4962629;28;20145;-91
2022/06/03 15:58:36;;;;;;;0.10;0.10;;;;;;;;;;4976841;28;20437;-91
2022/06/03 16:01:12;;;;;;;0.10;0.10;;;;;;;;;;4960476;28;20105;-90
2022/06/03 16:03:40;;;;;;;0.10;0.10;;;;;;;;;;4961376;28;20054;-90
2022/06/03 16:06:11;;;;;;;0.20;0.20;;;;;;;;;;4965133;28;20544;-91